Time;durP1;ratioP1;P1;durP2;ratioP2;P2;SDS_P1;SDS_P2;PMS_P1;PMS_P2;Temp;Humidity;BMP_temperature;BMP_pressure;BME280_temperature;BME280_humidity;BME280_pressure;Samples;Min_cycle;Max_cycle;Signal;HPM_P1;HPM_P2
2022/03/15 00:00:22;;;;;;;5.88;4.07;;;;;;;4.37;100.00;99611.84;10404371;28;20120;-49
2022/03/15 00:05:50;;;;;;;6.38;4.20;;;;;;;4.35;100.00;99621.75;10396353;28;20044;-56
2022/03/15 00:10:58;;;;;;;6.20;4.70;;;;;;;4.31;100.00;99618.41;10405084;28;20514;-49
2022/03/15 00:16:03;;;;;;;6.68;4.63;;;;;;;4.28;100.00;99627.47;10401629;28;20045;-51
2022/03/15 00:21:10;;;;;;;7.07;4.57;;;;;;;4.20;100.00;99636.88;10392728;28;20049;-48
2022/03/15 00:26:13;;;;;;;5.03;4.47;;;;;;;4.11;100.00;99647.16;10399712;28;20050;-48
2022/03/15 00:31:17;;;;;;;7.10;5.53;;;;;;;4.01;100.00;99636.13;10400970;28;20053;-48
2022/03/15 00:36:21;;;;;;;6.78;5.10;;;;;;;3.95;100.00;99646.31;10371583;28;20057;-51
2022/03/15 00:41:24;;;;;;;7.50;5.60;;;;;;;3.87;100.00;99641.41;10369593;28;20054;-49
2022/03/15 00:46:29;;;;;;;7.15;5.57;;;;;;;3.82;100.00;99636.34;10382015;28;20125;-48
2022/03/15 00:51:34;;;;;;;6.50;5.22;;;;;;;3.77;100.00;99642.88;10389463;28;20387;-48
2022/03/15 00:56:37;;;;;;;7.13;5.80;;;;;;;3.70;100.00;99640.56;10366361;28;20048;-48
2022/03/15 01:01:42;;;;;;;6.57;5.60;;;;;;;3.65;100.00;99645.31;10368945;28;20088;-51
2022/03/15 01:06:46;;;;;;;7.20;5.68;;;;;;;3.59;100.00;99650.97;10373373;28;20104;-55
2022/03/15 01:11:49;;;;;;;8.60;6.00;;;;;;;3.57;100.00;99647.56;10367351;28;20124;-55
2022/03/15 01:16:55;;;;;;;7.80;5.25;;;;;;;3.55;100.00;99642.28;10370817;28;20072;-51
2022/03/15 01:22:00;;;;;;;8.30;5.85;;;;;;;3.52;100.00;99622.97;10367929;28;20054;-55
2022/03/15 01:27:04;;;;;;;7.18;5.40;;;;;;;3.51;100.00;99629.22;10367610;28;20078;-56
2022/03/15 01:32:10;;;;;;;7.25;5.03;;;;;;;3.49;100.00;99628.44;10368291;28;20145;-56
2022/03/15 01:37:13;;;;;;;7.68;5.25;;;;;;;3.45;100.00;99622.44;10368077;28;20100;-54
2022/03/15 01:42:16;;;;;;;8.23;5.10;;;;;;;3.45;100.00;99624.25;10367460;28;20054;-56
2022/03/15 01:47:20;;;;;;;6.15;4.93;;;;;;;3.43;100.00;99628.81;10368968;28;20538;-55
2022/03/15 01:52:23;;;;;;;6.68;4.65;;;;;;;3.40;100.00;99616.53;10368103;28;20136;-54
2022/03/15 01:57:26;;;;;;;5.63;4.47;;;;;;;3.33;100.00;99617.81;10366631;28;20044;-52
2022/03/15 02:02:31;;;;;;;8.10;5.13;;;;;;;3.32;100.00;99616.06;10367931;28;20435;-56
2022/03/15 02:07:34;;;;;;;5.07;4.45;;;;;;;3.33;100.00;99605.34;10367056;28;20042;-55
2022/03/15 02:12:38;;;;;;;8.27;5.20;;;;;;;3.32;100.00;99608.97;10369276;28;20057;-56
2022/03/15 02:17:42;;;;;;;7.45;5.40;;;;;;;3.32;100.00;99613.41;10370106;28;20095;-56
2022/03/15 02:22:46;;;;;;;7.72;4.85;;;;;;;3.31;100.00;99620.56;10387230;28;20059;-56
2022/03/15 02:27:49;;;;;;;5.80;4.90;;;;;;;3.30;100.00;99609.97;10381256;28;20483;-55
2022/03/15 02:32:53;;;;;;;7.47;4.80;;;;;;;3.28;100.00;99612.72;10369763;28;20437;-54
2022/03/15 02:37:57;;;;;;;6.38;4.90;;;;;;;3.26;100.00;99600.47;10367822;28;20391;-54
2022/03/15 02:43:01;;;;;;;7.75;5.13;;;;;;;3.26;100.00;99605.78;10371784;28;20037;-57
2022/03/15 02:48:04;;;;;;;7.57;5.10;;;;;;;3.27;100.00;99611.00;10367292;28;20050;-58
2022/03/15 02:53:08;;;;;;;6.78;5.07;;;;;;;3.26;100.00;99611.94;10378815;28;20045;-57
2022/03/15 02:58:11;;;;;;;10.77;5.90;;;;;;;3.25;100.00;99620.88;10375198;28;20045;-57
2022/03/15 03:03:14;;;;;;;8.98;5.60;;;;;;;3.23;100.00;99612.16;10373261;28;20053;-54
2022/03/15 03:08:20;;;;;;;8.25;6.30;;;;;;;3.20;100.00;99618.47;10376356;28;20041;-56
2022/03/15 03:13:26;;;;;;;7.28;5.32;;;;;;;3.17;100.00;99617.78;10376405;28;20049;-58
2022/03/15 03:18:32;;;;;;;8.20;5.05;;;;;;;3.13;100.00;99614.44;10374039;28;20132;-58
2022/03/15 03:23:37;;;;;;;6.78;5.03;;;;;;;3.07;100.00;99607.66;10380640;28;20050;-54
2022/03/15 03:28:40;;;;;;;6.70;5.05;;;;;;;3.05;100.00;99609.53;10381880;28;20124;-54
2022/03/15 03:33:44;;;;;;;6.80;4.75;;;;;;;3.00;100.00;99595.59;10373753;28;20053;-57
2022/03/15 03:38:50;;;;;;;6.13;4.93;;;;;;;2.88;100.00;99599.81;10373870;28;20056;-56
2022/03/15 03:43:53;;;;;;;8.68;4.97;;;;;;;2.83;100.00;99595.69;10374804;28;20069;-54
2022/03/15 03:55:51;;;;;;;7.10;5.32;;;;;;;2.75;100.00;99599.63;10386530;28;20038;-56
2022/03/15 04:00:54;;;;;;;7.28;4.97;;;;;;;2.76;100.00;99606.63;10390265;28;20463;-57
2022/03/15 04:05:57;;;;;;;6.47;4.97;;;;;;;2.71;100.00;99600.72;10375967;28;20133;-52
2022/03/15 04:11:01;;;;;;;7.35;5.72;;;;;;;2.71;100.00;99592.75;10370287;28;20046;-53
2022/03/15 04:16:06;;;;;;;7.68;5.72;;;;;;;2.72;100.00;99586.47;10384481;28;20084;-55
2022/03/15 04:21:10;;;;;;;8.75;6.07;;;;;;;2.71;100.00;99592.75;10373813;28;20053;-53
2022/03/15 04:26:14;;;;;;;8.50;5.78;;;;;;;2.70;100.00;99592.84;10377047;28;20067;-53
2022/03/15 04:31:17;;;;;;;7.20;5.43;;;;;;;2.69;100.00;99589.28;10379238;28;20561;-53
2022/03/15 04:36:21;;;;;;;7.97;5.65;;;;;;;2.69;100.00;99589.28;10376188;28;20068;-53
2022/03/15 04:41:26;;;;;;;7.45;5.72;;;;;;;2.71;100.00;99587.41;10370765;28;20046;-54
2022/03/15 04:46:31;;;;;;;7.60;5.55;;;;;;;2.70;100.00;99577.72;10371350;28;20052;-53
2022/03/15 04:51:34;;;;;;;7.90;5.60;;;;;;;2.72;100.00;99582.94;10369224;28;20154;-51
2022/03/15 04:56:39;;;;;;;7.45;5.28;;;;;;;2.71;100.00;99563.47;10370958;28;20069;-56
2022/03/15 05:01:42;;;;;;;6.50;5.13;;;;;;;2.67;100.00;99563.72;10375390;28;20639;-52
2022/03/15 05:06:45;;;;;;;8.85;5.57;;;;;;;2.66;100.00;99570.81;10368894;28;20046;-55
2022/03/15 05:11:50;;;;;;;7.72;5.80;;;;;;;2.64;100.00;99571.84;10369838;28;20061;-51
2022/03/15 05:16:53;;;;;;;7.82;6.22;;;;;;;2.69;100.00;99578.66;10370050;28;20077;-51
2022/03/15 05:21:57;;;;;;;7.57;5.60;;;;;;;2.71;100.00;99583.88;10369094;28;20056;-52
2022/03/15 05:27:02;;;;;;;8.13;5.35;;;;;;;2.66;100.00;99578.81;10380756;28;20087;-52
2022/03/15 05:32:05;;;;;;;5.95;5.25;;;;;;;2.60;100.00;99573.84;10395748;28;20116;-53
2022/03/15 05:37:09;;;;;;;9.07;6.13;;;;;;;2.56;100.00;99574.94;10370619;28;20057;-51
2022/03/15 05:42:13;;;;;;;8.15;5.70;;;;;;;2.56;100.00;99556.31;10369666;28;20454;-52
2022/03/15 05:47:20;;;;;;;7.55;5.75;;;;;;;2.55;100.00;99557.25;10367949;28;20470;-55
2022/03/15 05:52:23;;;;;;;8.57;5.40;;;;;;;2.52;100.00;99552.09;10370826;28;20052;-51
2022/03/15 05:57:27;;;;;;;7.38;5.43;;;;;;;2.53;100.00;99553.81;10374023;28;20565;-54
2022/03/15 06:02:30;;;;;;;9.30;6.40;;;;;;;2.55;100.00;99562.56;10371550;28;20474;-51
2022/03/15 06:07:33;;;;;;;7.35;6.28;;;;;;;2.57;100.00;99571.31;10369521;28;20395;-51
2022/03/15 06:12:38;;;;;;;8.95;6.40;;;;;;;2.61;100.00;99570.22;10366683;28;20115;-52
2022/03/15 06:17:46;;;;;;;8.02;6.07;;;;;;;2.67;100.00;99569.03;10369004;28;20084;-52
2022/03/15 06:22:49;;;;;;;7.70;5.60;;;;;;;2.72;100.00;99559.00;10368646;28;20069;-52
2022/03/15 06:28:13;;;;;;;6.07;4.78;;;;;;;2.79;100.00;99555.06;10367559;28;20045;-53
2022/03/15 06:33:16;;;;;;;6.43;4.78;;;;;;;2.83;100.00;99556.59;10368456;28;20136;-53
2022/03/15 06:38:20;;;;;;;7.30;5.13;;;;;;;2.82;100.00;99548.72;10364578;28;20129;-60
2022/03/15 06:43:24;;;;;;;6.85;5.10;;;;;;;2.90;100.00;99551.81;10367713;28;20042;-58
2022/03/15 06:48:27;;;;;;;7.07;4.80;;;;;;;2.97;100.00;99553.19;10366487;28;20546;-53
2022/03/15 06:53:30;;;;;;;7.47;3.70;;;;;;;3.06;100.00;99550.03;10367961;28;20128;-57
2022/03/15 06:58:35;;;;;;;5.72;4.03;;;;;;;3.15;100.00;99545.13;10366019;28;20201;-58
2022/03/15 07:03:38;;;;;;;4.60;3.90;;;;;;;3.24;100.00;99544.59;10405486;23;20172;-53
2022/03/15 07:08:41;;;;;;;5.88;4.00;;;;;;;3.35;100.00;99544.84;10442771;28;20068;-55
2022/03/15 07:13:45;;;;;;;4.60;3.80;;;;;;;3.45;100.00;99525.69;10443670;28;20046;-52
2022/03/15 07:18:48;;;;;;;4.70;3.63;;;;;;;3.53;100.00;99520.75;10422692;28;20524;-57
2022/03/15 07:23:51;;;;;;;5.13;3.70;;;;;;;3.66;100.00;99529.75;10410335;28;20049;-51
2022/03/15 07:28:56;;;;;;;6.68;4.03;;;;;;;3.72;100.00;99543.66;10423918;28;20046;-54
2022/03/15 07:33:59;;;;;;;4.75;3.80;;;;;;;3.78;100.00;99543.31;10406930;28;20445;-54
2022/03/15 07:39:05;;;;;;;4.30;3.90;;;;;;;3.80;100.00;99536.94;10414206;28;20095;-51
2022/03/15 07:44:09;;;;;;;5.10;4.60;;;;;;;3.90;100.00;99541.72;10422535;28;20041;-52
2022/03/15 07:49:12;;;;;;;6.45;5.22;;;;;;;3.91;100.00;99538.97;10416815;28;20067;-54
2022/03/15 07:54:15;;;;;;;5.57;4.80;;;;;;;4.06;100.00;99544.34;10420244;28;20061;-58
2022/03/15 07:59:20;;;;;;;5.32;4.45;;;;;;;4.21;100.00;99537.22;10416911;28;20049;-53
2022/03/15 08:04:23;;;;;;;6.55;3.72;;;;;;;4.32;100.00;99535.59;10418361;28;20417;-53
2022/03/15 08:09:27;;;;;;;5.70;3.80;;;;;;;4.45;100.00;99530.41;10422479;28;20080;-53
2022/03/15 08:14:32;;;;;;;4.03;3.50;;;;;;;4.58;100.00;99529.63;10429598;28;20091;-52
2022/03/15 08:19:35;;;;;;;3.83;3.33;;;;;;;4.63;100.00;99520.38;10415123;28;20077;-53
2022/03/15 08:24:38;;;;;;;4.28;3.00;;;;;;;4.80;100.00;99513.09;10414149;28;20136;-55
2022/03/15 08:29:42;;;;;;;4.57;2.95;;;;;;;4.94;100.00;99507.75;10422897;28;20116;-53
2022/03/15 08:34:45;;;;;;;3.03;2.72;;;;;;;5.11;100.00;99512.94;10429844;28;20056;-53
2022/03/15 08:39:48;;;;;;;3.22;2.90;;;;;;;5.16;100.00;99509.03;10433147;28;20050;-52
2022/03/15 08:44:53;;;;;;;5.32;3.03;;;;;;;5.19;100.00;99508.81;10420046;28;20116;-54
2022/03/15 08:49:56;;;;;;;3.90;2.95;;;;;;;5.37;100.00;99506.75;10425653;28;20075;-53
2022/03/15 08:54:59;;;;;;;3.40;3.10;;;;;;;5.49;100.00;99481.03;10426420;28;20116;-54
2022/03/15 09:00:07;;;;;;;2.58;2.38;;;;;;;5.59;100.00;99449.19;10421401;28;20426;-54
2022/03/15 09:05:11;;;;;;;3.92;2.40;;;;;;;5.76;100.00;99477.44;10424806;28;20069;-53
2022/03/15 09:10:14;;;;;;;3.63;2.45;;;;;;;5.89;100.00;99465.91;10416080;28;20060;-55
2022/03/15 09:15:18;;;;;;;3.90;2.80;;;;;;;6.10;100.00;99463.63;10420793;28;20568;-55
2022/03/15 09:20:21;;;;;;;4.07;3.10;;;;;;;6.26;100.00;99472.25;10412255;28;20045;-54
2022/03/15 09:25:24;;;;;;;3.17;2.65;;;;;;;6.45;100.00;99463.78;10421138;28;20621;-54
2022/03/15 09:30:30;;;;;;;3.17;2.47;;;;;;;6.64;100.00;99446.44;10425335;28;20045;-55
2022/03/15 09:35:35;;;;;;;3.60;2.40;;;;;;;6.80;100.00;99440.81;10415427;28;20406;-56
2022/03/15 09:40:38;;;;;;;3.00;2.20;;;;;;;6.96;100.00;99429.81;10416650;28;20129;-53
2022/03/15 09:45:46;;;;;;;2.88;2.40;;;;;;;7.18;100.00;99422.84;10423462;28;20778;-53
2022/03/15 09:50:51;;;;;;;3.40;2.17;;;;;;;7.36;100.00;99405.38;10417769;28;20406;-55
2022/03/15 09:55:54;;;;;;;3.13;2.55;;;;;;;7.49;100.00;99409.81;10411410;28;20041;-52
2022/03/15 10:00:58;;;;;;;2.67;2.40;;;;;;;7.59;100.00;99401.91;10415288;28;20420;-54
2022/03/15 10:06:02;;;;;;;3.50;2.60;;;;;;;7.63;100.00;99398.88;10411760;28;20065;-52
2022/03/15 10:11:05;;;;;;;2.78;2.33;;;;;;;7.81;100.00;99382.34;10424665;28;20060;-55
2022/03/15 10:16:13;;;;;;;3.17;2.42;;;;;;;7.94;100.00;99366.13;10421022;28;20056;-51
2022/03/15 10:21:16;;;;;;;3.13;2.28;;;;;;;7.98;100.00;99351.50;10411453;28;20128;-51
2022/03/15 10:26:24;;;;;;;3.45;2.58;;;;;;;8.27;100.00;99341.13;10420037;28;20128;-53
2022/03/15 10:31:30;;;;;;;2.30;2.10;;;;;;;8.56;100.00;99326.31;10409707;28;20045;-52
2022/03/15 10:36:39;;;;;;;2.50;2.10;;;;;;;8.84;100.00;99314.13;10411337;28;20056;-53
2022/03/15 10:41:45;;;;;;;2.22;2.00;;;;;;;9.12;100.00;99309.09;10420106;28;20064;-52
2022/03/15 10:47:05;;;;;;;2.78;2.15;;;;;;;9.41;100.00;99292.34;10411433;28;20077;-55
2022/03/15 10:52:08;;;;;;;2.30;1.88;;;;;;;9.63;100.00;99279.69;10403951;28;20054;-54
2022/03/15 10:57:11;;;;;;;1.95;1.80;;;;;;;9.82;100.00;99281.63;10415676;28;20129;-56
2022/03/15 11:02:16;;;;;;;2.47;1.70;;;;;;;10.02;100.00;99271.78;10413220;28;20041;-53
2022/03/15 11:07:19;;;;;;;2.35;1.63;;;;;;;10.25;100.00;99258.09;10412594;28;20088;-55
2022/03/15 11:12:29;;;;;;;2.13;1.35;;;;;;;10.42;100.00;99235.06;10414139;28;20069;-55
2022/03/15 11:17:36;;;;;;;2.05;1.30;;;;;;;10.57;100.00;99230.09;10416154;28;20060;-56
2022/03/15 11:22:39;;;;;;;1.73;1.20;;;;;;;10.67;100.00;99224.72;10417119;28;20040;-54
2022/03/15 11:27:44;;;;;;;3.15;1.10;;;;;;;10.79;100.00;99220.88;10418051;28;20080;-55
2022/03/15 11:32:49;;;;;;;1.85;1.50;;;;;;;10.85;100.00;99219.47;10414451;28;20095;-57
2022/03/15 11:37:54;;;;;;;2.85;1.55;;;;;;;10.94;100.00;99203.25;10416001;28;20047;-57
2022/03/15 11:43:07;;;;;;;2.95;1.48;;;;;;;10.97;100.00;99196.75;10413602;28;20042;-58
2022/03/15 11:48:21;;;;;;;3.95;1.58;;;;;;;11.04;100.00;99180.84;10437145;28;20068;-55
2022/03/15 11:53:39;;;;;;;4.85;1.63;;;;;;;11.05;100.00;99167.19;10420334;28;20048;-55
2022/03/15 11:58:52;;;;;;;3.00;1.48;;;;;;;11.14;100.00;99167.31;10416927;28;20057;-53
2022/03/15 12:03:59;;;;;;;1.95;1.40;;;;;;;11.22;100.00;99153.97;10416108;28;20103;-57
2022/03/15 12:09:10;;;;;;;1.88;1.40;;;;;;;11.27;100.00;99135.47;10410040;28;20045;-53
2022/03/15 12:14:37;;;;;;;2.55;1.30;;;;;;;11.20;100.00;99121.72;10412471;28;20045;-52
2022/03/15 12:19:47;;;;;;;1.98;1.48;;;;;;;11.17;100.00;99113.91;10411216;28;20114;-57
2022/03/15 12:25:01;;;;;;;3.00;1.63;;;;;;;11.13;100.00;99103.56;10413021;28;20052;-55
2022/03/15 12:30:28;;;;;;;2.28;1.38;;;;;;;11.02;100.00;99110.84;10418378;28;20042;-54
2022/03/15 12:35:33;;;;;;;2.00;1.50;;;;;;;11.02;100.00;99094.69;10421370;28;20041;-53
2022/03/15 12:40:42;;;;;;;2.03;1.50;;;;;;;10.91;100.00;99101.13;10422974;28;20068;-52
2022/03/15 12:45:46;;;;;;;2.63;1.50;;;;;;;10.93;100.00;99088.34;10420445;28;20466;-56
2022/03/15 12:50:54;;;;;;;3.05;1.60;;;;;;;10.87;100.00;99078.13;10417273;28;20450;-57
2022/03/15 12:55:58;;;;;;;1.88;1.70;;;;;;;10.82;100.00;99083.09;10416434;28;20056;-55
2022/03/15 13:01:01;;;;;;;2.85;1.80;;;;;;;10.76;100.00;99073.75;10423892;28;20418;-56
2022/03/15 13:06:05;;;;;;;3.60;1.73;;;;;;;10.69;100.00;99064.56;10391747;23;20062;-82
2022/03/15 13:11:08;;;;;;;3.00;1.77;;;;;;;10.61;100.00;99054.50;10356596;28;20045;-82
2022/03/15 13:16:12;;;;;;;3.13;1.90;;;;;;;10.54;100.00;99045.31;10368328;28;20034;-81
2022/03/15 13:21:17;;;;;;;2.92;2.15;;;;;;;10.45;100.00;99032.75;10354532;28;20072;-82
2022/03/15 13:26:25;;;;;;;2.63;2.00;;;;;;;10.38;100.00;99021.69;10346059;28;20477;-81
2022/03/15 13:31:28;;;;;;;3.00;2.10;;;;;;;10.31;100.00;99016.00;10349945;28;20463;-84
2022/03/15 13:36:34;;;;;;;3.13;2.00;;;;;;;10.14;100.00;99009.50;10346625;28;20054;-82
2022/03/15 13:41:41;;;;;;;4.15;1.70;;;;;;;10.05;100.00;99004.13;10350804;28;20415;-81
2022/03/15 13:46:46;;;;;;;4.60;2.10;;;;;;;10.02;100.00;98999.91;10351862;28;20506;-81
2022/03/15 13:52:00;;;;;;;3.17;1.90;;;;;;;9.83;100.00;98982.75;10348284;28;20141;-81
2022/03/15 13:57:07;;;;;;;2.83;1.80;;;;;;;9.71;100.00;98970.44;10352562;28;20034;-83
2022/03/15 14:02:10;;;;;;;3.53;1.70;;;;;;;9.62;100.00;98965.91;10387567;22;20053;-60
2022/03/15 14:07:23;;;;;;;3.25;2.00;;;;;;;9.51;100.00;98953.47;10382146;28;20104;-61
2022/03/15 14:12:31;;;;;;;3.15;2.10;;;;;;;9.39;100.00;98929.41;10382032;28;20085;-61
2022/03/15 14:17:48;;;;;;;3.30;2.20;;;;;;;9.30;100.00;98918.63;10375960;28;20118;-58
2022/03/15 14:22:55;;;;;;;3.70;2.10;;;;;;;9.22;100.00;98895.13;10378185;28;20033;-59
2022/03/15 14:28:01;;;;;;;2.25;1.90;;;;;;;9.15;100.00;98878.72;10378581;28;20120;-54
2022/03/15 14:33:08;;;;;;;3.17;1.90;;;;;;;9.10;100.00;98863.00;10373448;28;20046;-55
2022/03/15 14:38:15;;;;;;;3.15;2.10;;;;;;;9.09;100.00;98865.84;10379759;28;20449;-54
2022/03/15 14:43:21;;;;;;;2.47;2.00;;;;;;;9.05;100.00;98856.38;10376908;28;20045;-54
2022/03/15 14:48:25;;;;;;;2.33;1.90;;;;;;;9.00;100.00;98842.50;10373267;28;20050;-59
2022/03/15 14:53:34;;;;;;;2.28;2.00;;;;;;;8.92;100.00;98845.91;10381706;28;20533;-58
2022/03/15 14:58:38;;;;;;;2.50;1.90;;;;;;;8.87;100.00;98832.91;10393438;28;20049;-60
2022/03/15 15:03:41;;;;;;;3.22;2.03;;;;;;;8.81;100.00;98840.66;10384360;28;20128;-53
2022/03/15 15:08:46;;;;;;;3.72;2.20;;;;;;;8.73;100.00;98835.97;10381602;28;20067;-58
2022/03/15 15:13:49;;;;;;;5.22;1.88;;;;;;;8.67;100.00;98849.94;10377343;28;20052;-55
2022/03/15 15:18:52;;;;;;;2.47;2.00;;;;;;;8.63;100.00;98850.25;10388598;28;20120;-58
2022/03/15 15:23:56;;;;;;;3.45;2.00;;;;;;;8.53;100.00;98852.03;10386103;28;20137;-58
2022/03/15 15:29:00;;;;;;;3.80;2.08;;;;;;;8.42;100.00;98850.31;10386111;28;20493;-55
2022/03/15 15:34:05;;;;;;;3.60;2.22;;;;;;;8.33;100.00;98862.69;10377804;28;20109;-56
2022/03/15 15:39:10;;;;;;;2.58;2.38;;;;;;;8.31;100.00;98867.34;10378927;28;20085;-54
2022/03/15 15:44:14;;;;;;;4.10;2.40;;;;;;;8.26;100.00;98858.88;10381195;28;20156;-58
2022/03/15 15:49:17;;;;;;;2.65;2.20;;;;;;;8.14;100.00;98852.75;10377463;28;20108;-56
2022/03/15 15:54:22;;;;;;;3.78;2.40;;;;;;;8.04;100.00;98849.16;10372387;28;20117;-55
2022/03/15 15:59:28;;;;;;;3.05;2.40;;;;;;;7.94;100.00;98848.28;10379190;28;20056;-56
2022/03/15 16:04:32;;;;;;;3.88;2.55;;;;;;;7.83;100.00;98846.50;10400530;28;20053;-55
2022/03/15 16:09:37;;;;;;;5.18;2.90;;;;;;;7.75;100.00;98847.22;10393044;28;20495;-56
2022/03/15 16:14:40;;;;;;;5.13;3.47;;;;;;;7.66;100.00;98843.47;10377184;28;20117;-56
2022/03/15 16:19:54;;;;;;;5.78;3.45;;;;;;;7.59;100.00;98847.66;10375233;28;20081;-57
2022/03/15 16:24:59;;;;;;;4.43;3.30;;;;;;;7.50;100.00;98843.94;10390218;28;20485;-59
2022/03/15 16:30:02;;;;;;;5.30;3.40;;;;;;;7.43;100.00;98847.28;10380617;28;20569;-57
2022/03/15 16:35:06;;;;;;;4.13;3.35;;;;;;;7.29;100.00;98861.88;10388268;28;20044;-55
2022/03/15 16:40:33;;;;;;;5.82;4.00;;;;;;;7.15;100.00;98865.69;10367755;28;20568;-58
2022/03/15 16:45:40;;;;;;;5.45;4.10;;;;;;;7.09;100.00;98859.00;10368149;28;20080;-58
2022/03/15 16:50:44;;;;;;;6.00;4.60;;;;;;;7.01;100.00;98853.44;10379091;28;20405;-60
2022/03/15 16:55:50;;;;;;;6.00;4.50;;;;;;;6.97;100.00;98852.00;10373629;28;20044;-59
2022/03/15 17:00:53;;;;;;;6.82;4.75;;;;;;;6.91;100.00;98853.34;10367708;28;20120;-60
2022/03/15 17:05:56;;;;;;;5.47;4.63;;;;;;;6.86;100.00;98858.25;10373958;28;20050;-58
2022/03/15 17:11:03;;;;;;;8.00;5.43;;;;;;;6.85;100.00;98870.78;10370411;28;20053;-57
2022/03/15 17:16:07;;;;;;;7.40;5.03;;;;;;;6.81;100.00;98863.13;10370798;28;20468;-57
2022/03/15 17:21:16;;;;;;;7.18;5.55;;;;;;;6.78;100.00;98870.44;10373112;28;20041;-58
2022/03/15 17:26:23;;;;;;;8.65;5.95;;;;;;;6.76;100.00;98868.88;10369935;28;20060;-57
2022/03/15 17:31:31;;;;;;;8.63;6.07;;;;;;;6.73;100.00;98872.66;10371314;28;20120;-57
2022/03/15 17:36:36;;;;;;;8.18;5.90;;;;;;;6.71;100.00;98857.66;10370843;28;20045;-58
2022/03/15 17:41:56;;;;;;;8.38;6.18;;;;;;;6.70;100.00;98869.38;10371305;28;20053;-59
2022/03/15 17:47:03;;;;;;;8.75;6.47;;;;;;;6.68;100.00;98866.81;10367211;28;20049;-58
2022/03/15 17:52:10;;;;;;;8.65;6.05;;;;;;;6.67;100.00;98877.66;10391807;28;20049;-58
2022/03/15 17:57:19;;;;;;;8.15;6.00;;;;;;;6.65;100.00;98874.25;10369199;28;20046;-59
2022/03/15 18:02:23;;;;;;;10.27;7.00;;;;;;;6.59;100.00;98867.56;10367863;28;20081;-58
2022/03/15 18:07:27;;;;;;;8.48;7.30;;;;;;;6.54;100.00;98884.00;10378118;28;20601;-53
2022/03/15 18:12:32;;;;;;;11.82;8.23;;;;;;;6.44;100.00;98873.19;10386145;28;20073;-55
2022/03/15 18:17:36;;;;;;;11.52;9.75;;;;;;;6.42;100.00;98871.63;10369780;28;20121;-54
2022/03/15 18:22:41;;;;;;;14.65;11.63;;;;;;;6.40;100.00;98885.13;10363405;28;20108;-54
2022/03/15 18:27:46;;;;;;;17.38;12.57;;;;;;;6.40;100.00;98870.88;10399349;28;20041;-55
2022/03/15 18:32:52;;;;;;;13.88;11.65;;;;;;;6.35;100.00;98878.44;10380771;28;20073;-57
2022/03/15 18:37:57;;;;;;;14.35;11.52;;;;;;;6.35;100.00;98891.84;10366936;28;20049;-54
2022/03/15 18:43:05;;;;;;;15.00;12.38;;;;;;;6.28;100.00;98886.94;10389340;28;20045;-57
2022/03/15 18:48:11;;;;;;;18.83;14.10;;;;;;;6.28;100.00;98894.97;10387973;28;20041;-55
2022/03/15 18:53:16;;;;;;;18.92;14.73;;;;;;;6.26;100.00;98890.72;10392200;28;20456;-56
2022/03/15 18:58:22;;;;;;;21.02;15.48;;;;;;;6.24;100.00;98885.47;10391483;28;20076;-56
2022/03/15 19:03:31;;;;;;;18.45;14.40;;;;;;;6.22;100.00;98878.56;10403087;28;20506;-53
2022/03/15 19:08:39;;;;;;;22.05;15.65;;;;;;;6.23;100.00;98890.97;10389807;28;20115;-65
2022/03/15 19:13:51;;;;;;;25.50;18.23;;;;;;;6.22;100.00;98891.94;10401317;28;20084;-49
2022/03/15 19:18:59;;;;;;;18.75;15.05;;;;;;;6.17;100.00;98895.81;10388835;28;20045;-53
2022/03/15 19:24:04;;;;;;;22.67;16.90;;;;;;;6.21;100.00;98883.06;10367686;28;20096;-50
2022/03/15 19:29:10;;;;;;;33.63;22.67;;;;;;;6.21;100.00;98882.22;10369693;28;20084;-53
2022/03/15 19:34:16;;;;;;;30.50;21.45;;;;;;;6.17;100.00;98887.78;10378726;28;20122;-55
2022/03/15 19:39:20;;;;;;;30.00;21.70;;;;;;;6.16;100.00;98891.47;10391762;28;20597;-54
2022/03/15 19:44:26;;;;;;;30.17;21.35;;;;;;;6.11;100.00;98892.81;10372773;28;20053;-52
2022/03/15 19:49:30;;;;;;;23.95;16.92;;;;;;;6.13;100.00;98891.72;10373721;28;20096;-59
2022/03/15 19:54:33;;;;;;;17.38;13.07;;;;;;;6.11;100.00;98888.28;10379941;28;20116;-57
2022/03/15 19:59:40;;;;;;;17.58;13.45;;;;;;;6.09;100.00;98892.91;10395363;28;20084;-56
2022/03/15 20:04:45;;;;;;;14.38;10.88;;;;;;;6.11;100.00;98888.28;10405362;28;20115;-52
2022/03/15 20:09:55;;;;;;;18.88;12.93;;;;;;;6.13;100.00;98874.78;10388742;28;20041;-56
2022/03/15 20:15:07;;;;;;;15.60;12.55;;;;;;;6.16;100.00;98880.78;10376646;28;20038;-59
2022/03/15 20:20:21;;;;;;;14.32;11.63;;;;;;;6.14;100.00;98882.72;10402903;28;20029;-50
2022/03/15 20:25:26;;;;;;;15.32;10.50;;;;;;;6.09;100.00;98889.41;10401552;28;20042;-49
2022/03/15 20:30:32;;;;;;;12.02;10.73;;;;;;;6.05;100.00;98894.16;10394654;28;20045;-55
2022/03/15 20:35:36;;;;;;;16.52;11.70;;;;;;;5.96;100.00;98902.84;10392596;28;20646;-56
2022/03/15 20:40:40;;;;;;;16.40;13.13;;;;;;;5.96;100.00;98911.72;10396336;28;20410;-52
2022/03/15 20:45:46;;;;;;;14.20;12.55;;;;;;;5.89;100.00;98925.69;10393367;28;20041;-48
2022/03/15 20:50:50;;;;;;;14.45;11.75;;;;;;;5.88;100.00;98926.66;10391631;28;20081;-48
2022/03/15 20:55:56;;;;;;;17.83;14.68;;;;;;;5.86;100.00;98916.09;10396142;28;20516;-52
2022/03/15 21:01:03;;;;;;;20.08;15.18;;;;;;;5.79;100.00;98933.56;10370769;28;20085;-56
2022/03/15 21:06:08;;;;;;;19.67;16.50;;;;;;;5.76;100.00;98929.31;10378448;28;20124;-48
2022/03/15 21:11:13;;;;;;;19.63;14.57;;;;;;;5.71;100.00;98945.72;10384539;28;20050;-50
2022/03/15 21:16:22;;;;;;;14.50;11.38;;;;;;;5.70;100.00;98960.03;10373788;28;20542;-53
2022/03/15 21:21:25;;;;;;;14.20;10.52;;;;;;;5.70;100.00;98975.25;10371306;28;20072;-52
2022/03/15 21:26:30;;;;;;;13.68;10.40;;;;;;;5.70;100.00;98970.72;10374759;28;20041;-47
2022/03/15 21:31:36;;;;;;;12.77;9.88;;;;;;;5.70;100.00;98965.38;10381620;28;20129;-51
2022/03/15 21:36:39;;;;;;;9.23;7.00;;;;;;;5.75;100.00;98957.00;10384970;28;20105;-54
2022/03/15 21:41:46;;;;;;;8.88;7.63;;;;;;;5.79;100.00;98958.50;10384735;28;20106;-53
2022/03/15 21:46:50;;;;;;;9.02;7.30;;;;;;;5.72;100.00;98965.25;10380869;28;20065;-53
2022/03/15 21:51:53;;;;;;;9.65;7.88;;;;;;;5.71;100.00;98968.91;10397000;28;20045;-49
2022/03/15 21:56:57;;;;;;;9.15;7.60;;;;;;;5.70;100.00;98968.06;10386527;28;20037;-51
2022/03/15 22:02:01;;;;;;;11.52;8.10;;;;;;;5.66;100.00;98973.75;10381214;28;20058;-49
2022/03/15 22:07:05;;;;;;;8.93;7.88;;;;;;;5.66;100.00;98990.63;10393498;28;20546;-53
2022/03/15 22:12:09;;;;;;;12.45;9.38;;;;;;;5.66;100.00;99000.50;10383702;28;20053;-49
2022/03/15 22:17:13;;;;;;;12.35;10.10;;;;;;;5.69;100.00;99008.28;10386324;28;20046;-51
2022/03/15 22:22:17;;;;;;;13.80;10.60;;;;;;;5.66;100.00;99021.88;10389655;28;20049;-50
2022/03/15 22:27:20;;;;;;;14.60;11.38;;;;;;;5.65;100.00;99014.81;10386474;28;20069;-49
2022/03/15 23:25:38;;;;;;;16.13;12.68;;;;;;;5.61;100.00;99050.75;10387373;28;20065;-49
2022/03/15 23:30:41;;;;;;;17.38;12.32;;;;;;;5.60;100.00;99055.25;10390570;28;20125;-50
2022/03/15 23:35:47;;;;;;;19.50;13.88;;;;;;;5.57;100.00;99060.84;10395474;28;20143;-49
2022/03/15 23:40:51;;;;;;;17.42;13.43;;;;;;;5.60;100.00;99070.44;10397798;28;20045;-49
2022/03/15 23:45:55;;;;;;;18.20;13.65;;;;;;;5.56;100.00;99075.16;10391478;28;20121;-49
2022/03/15 23:50:59;;;;;;;17.48;13.10;;;;;;;5.56;100.00;99085.84;10390266;28;20084;-53
2022/03/15 23:56:03;;;;;;;17.88;13.10;;;;;;;5.51;100.00;99094.22;10387475;28;20133;-50
